sensor_id;sensor_type;location;lat;lon;timestamp;pressure;altitude;pressure_sealevel;temperature
63220;BMP180;49320;52.512;13.448;2024-02-26T00:02:10;99975.00;;;13.20
63220;BMP180;49320;52.512;13.448;2024-02-26T00:04:37;99976.00;;;13.20
63220;BMP180;49320;52.512;13.448;2024-02-26T00:07:04;99981.00;;;13.20
63220;BMP180;49320;52.512;13.448;2024-02-26T00:09:31;99985.00;;;13.10
63220;BMP180;49320;52.512;13.448;2024-02-26T00:11:59;99992.00;;;13.10
63220;BMP180;49320;52.512;13.448;2024-02-26T00:14:26;99978.00;;;13.10
63220;BMP180;49320;52.512;13.448;2024-02-26T00:16:53;99974.00;;;13.10
63220;BMP180;49320;52.512;13.448;2024-02-26T00:19:20;99975.00;;;13.10
63220;BMP180;49320;52.512;13.448;2024-02-26T00:21:47;99977.00;;;13.00
63220;BMP180;49320;52.512;13.448;2024-02-26T00:24:14;99976.00;;;13.00
63220;BMP180;49320;52.512;13.448;2024-02-26T00:26:41;99977.00;;;13.00
63220;BMP180;49320;52.512;13.448;2024-02-26T00:29:08;99970.00;;;13.00
63220;BMP180;49320;52.512;13.448;2024-02-26T00:31:37;99961.00;;;13.00
63220;BMP180;49320;52.512;13.448;2024-02-26T00:34:04;99966.00;;;13.00
63220;BMP180;49320;52.512;13.448;2024-02-26T00:36:32;99969.00;;;13.00
63220;BMP180;49320;52.512;13.448;2024-02-26T00:38:58;99973.00;;;13.00
63220;BMP180;49320;52.512;13.448;2024-02-26T00:41:25;99967.00;;;13.00
63220;BMP180;49320;52.512;13.448;2024-02-26T00:43:52;99967.00;;;13.00
63220;BMP180;49320;52.512;13.448;2024-02-26T00:46:19;99965.00;;;12.90
63220;BMP180;49320;52.512;13.448;2024-02-26T00:48:46;99965.00;;;12.90
63220;BMP180;49320;52.512;13.448;2024-02-26T00:51:13;99958.00;;;12.90
63220;BMP180;49320;52.512;13.448;2024-02-26T00:53:40;99957.00;;;12.80
63220;BMP180;49320;52.512;13.448;2024-02-26T00:56:07;99951.00;;;12.80
63220;BMP180;49320;52.512;13.448;2024-02-26T00:58:34;99939.00;;;12.80
63220;BMP180;49320;52.512;13.448;2024-02-26T01:01:01;99954.00;;;12.80
63220;BMP180;49320;52.512;13.448;2024-02-26T01:03:27;99943.00;;;12.70
63220;BMP180;49320;52.512;13.448;2024-02-26T01:05:54;99944.00;;;12.70
63220;BMP180;49320;52.512;13.448;2024-02-26T01:08:24;99951.00;;;12.70
63220;BMP180;49320;52.512;13.448;2024-02-26T01:10:51;99949.00;;;12.60
63220;BMP180;49320;52.512;13.448;2024-02-26T01:13:18;99946.00;;;12.60
63220;BMP180;49320;52.512;13.448;2024-02-26T01:15:45;99945.00;;;12.60
63220;BMP180;49320;52.512;13.448;2024-02-26T01:18:12;99952.00;;;12.60
63220;BMP180;49320;52.512;13.448;2024-02-26T01:20:40;99951.00;;;12.60
63220;BMP180;49320;52.512;13.448;2024-02-26T01:23:07;99945.00;;;12.60
63220;BMP180;49320;52.512;13.448;2024-02-26T01:25:33;99952.00;;;12.60
63220;BMP180;49320;52.512;13.448;2024-02-26T01:28:00;99955.00;;;12.50
63220;BMP180;49320;52.512;13.448;2024-02-26T01:30:27;99941.00;;;12.50
63220;BMP180;49320;52.512;13.448;2024-02-26T01:32:54;99953.00;;;12.50
63220;BMP180;49320;52.512;13.448;2024-02-26T01:35:21;99942.00;;;12.50
63220;BMP180;49320;52.512;13.448;2024-02-26T01:37:48;99936.00;;;12.50
63220;BMP180;49320;52.512;13.448;2024-02-26T01:40:15;99935.00;;;12.40
63220;BMP180;49320;52.512;13.448;2024-02-26T01:42:45;99935.00;;;12.40
63220;BMP180;49320;52.512;13.448;2024-02-26T01:45:16;99930.00;;;12.40
63220;BMP180;49320;52.512;13.448;2024-02-26T01:47:52;99930.00;;;12.40
63220;BMP180;49320;52.512;13.448;2024-02-26T01:50:20;99938.00;;;12.40
63220;BMP180;49320;52.512;13.448;2024-02-26T01:52:50;99944.00;;;12.40
63220;BMP180;49320;52.512;13.448;2024-02-26T01:55:18;99944.00;;;12.30
63220;BMP180;49320;52.512;13.448;2024-02-26T01:57:49;99936.00;;;12.30
63220;BMP180;49320;52.512;13.448;2024-02-26T02:00:20;99938.00;;;12.30
63220;BMP180;49320;52.512;13.448;2024-02-26T02:02:47;99939.00;;;12.30
63220;BMP180;49320;52.512;13.448;2024-02-26T02:05:16;99936.00;;;12.20
63220;BMP180;49320;52.512;13.448;2024-02-26T02:07:44;99945.00;;;12.20
63220;BMP180;49320;52.512;13.448;2024-02-26T02:10:12;99946.00;;;12.20
63220;BMP180;49320;52.512;13.448;2024-02-26T02:12:39;99937.00;;;12.20
63220;BMP180;49320;52.512;13.448;2024-02-26T02:15:07;99942.00;;;12.20
63220;BMP180;49320;52.512;13.448;2024-02-26T02:17:35;99936.00;;;12.20
63220;BMP180;49320;52.512;13.448;2024-02-26T02:20:02;99941.00;;;12.20
63220;BMP180;49320;52.512;13.448;2024-02-26T02:22:31;99949.00;;;12.20
63220;BMP180;49320;52.512;13.448;2024-02-26T02:24:59;99942.00;;;12.20
63220;BMP180;49320;52.512;13.448;2024-02-26T02:27:28;99937.00;;;12.20
63220;BMP180;49320;52.512;13.448;2024-02-26T02:29:56;99949.00;;;12.10
63220;BMP180;49320;52.512;13.448;2024-02-26T02:32:25;99935.00;;;12.10
63220;BMP180;49320;52.512;13.448;2024-02-26T02:34:52;99938.00;;;12.10
63220;BMP180;49320;52.512;13.448;2024-02-26T02:37:19;99941.00;;;12.10
63220;BMP180;49320;52.512;13.448;2024-02-26T02:39:46;99944.00;;;12.10
63220;BMP180;49320;52.512;13.448;2024-02-26T02:42:13;99939.00;;;12.10
63220;BMP180;49320;52.512;13.448;2024-02-26T02:44:40;99942.00;;;12.10
63220;BMP180;49320;52.512;13.448;2024-02-26T02:47:07;99955.00;;;12.00
63220;BMP180;49320;52.512;13.448;2024-02-26T02:49:34;99947.00;;;12.00
63220;BMP180;49320;52.512;13.448;2024-02-26T02:52:01;99948.00;;;12.00
63220;BMP180;49320;52.512;13.448;2024-02-26T02:54:28;99962.00;;;12.00
63220;BMP180;49320;52.512;13.448;2024-02-26T02:56:55;99963.00;;;12.00
63220;BMP180;49320;52.512;13.448;2024-02-26T02:59:22;99958.00;;;12.00
63220;BMP180;49320;52.512;13.448;2024-02-26T03:01:48;99950.00;;;12.00
63220;BMP180;49320;52.512;13.448;2024-02-26T03:04:16;99948.00;;;11.90
63220;BMP180;49320;52.512;13.448;2024-02-26T03:06:42;99948.00;;;11.90
63220;BMP180;49320;52.512;13.448;2024-02-26T03:09:09;99949.00;;;11.90
63220;BMP180;49320;52.512;13.448;2024-02-26T03:11:36;99945.00;;;11.80
63220;BMP180;49320;52.512;13.448;2024-02-26T03:14:03;99953.00;;;11.80
63220;BMP180;49320;52.512;13.448;2024-02-26T03:16:31;99959.00;;;11.80
63220;BMP180;49320;52.512;13.448;2024-02-26T03:18:58;99956.00;;;11.70
63220;BMP180;49320;52.512;13.448;2024-02-26T03:21:25;99946.00;;;11.70
63220;BMP180;49320;52.512;13.448;2024-02-26T03:23:52;99949.00;;;11.70
63220;BMP180;49320;52.512;13.448;2024-02-26T03:26:20;99952.00;;;11.70
63220;BMP180;49320;52.512;13.448;2024-02-26T03:28:48;99953.00;;;11.70
63220;BMP180;49320;52.512;13.448;2024-02-26T03:31:15;99969.00;;;11.70
63220;BMP180;49320;52.512;13.448;2024-02-26T03:33:42;99962.00;;;11.70
63220;BMP180;49320;52.512;13.448;2024-02-26T03:36:09;99944.00;;;11.70
63220;BMP180;49320;52.512;13.448;2024-02-26T03:38:37;99945.00;;;11.70
63220;BMP180;49320;52.512;13.448;2024-02-26T03:41:04;99940.00;;;11.70
63220;BMP180;49320;52.512;13.448;2024-02-26T03:43:31;99950.00;;;11.60
63220;BMP180;49320;52.512;13.448;2024-02-26T03:45:58;99954.00;;;11.60
63220;BMP180;49320;52.512;13.448;2024-02-26T03:48:25;99959.00;;;11.60
63220;BMP180;49320;52.512;13.448;2024-02-26T03:50:52;99960.00;;;11.60
63220;BMP180;49320;52.512;13.448;2024-02-26T03:53:19;99967.00;;;11.60
63220;BMP180;49320;52.512;13.448;2024-02-26T03:55:46;99963.00;;;11.50
63220;BMP180;49320;52.512;13.448;2024-02-26T03:58:13;99968.00;;;11.50
63220;BMP180;49320;52.512;13.448;2024-02-26T04:00:40;99960.00;;;11.50
63220;BMP180;49320;52.512;13.448;2024-02-26T04:03:07;99967.00;;;11.50
63220;BMP180;49320;52.512;13.448;2024-02-26T04:05:34;99966.00;;;11.50
63220;BMP180;49320;52.512;13.448;2024-02-26T04:08:01;99975.00;;;11.50
63220;BMP180;49320;52.512;13.448;2024-02-26T04:10:29;99966.00;;;11.50
63220;BMP180;49320;52.512;13.448;2024-02-26T04:12:55;99966.00;;;11.40
63220;BMP180;49320;52.512;13.448;2024-02-26T04:15:22;99975.00;;;11.40
63220;BMP180;49320;52.512;13.448;2024-02-26T04:17:49;99985.00;;;11.40
63220;BMP180;49320;52.512;13.448;2024-02-26T04:20:16;99976.00;;;11.40
63220;BMP180;49320;52.512;13.448;2024-02-26T04:22:44;99990.00;;;11.40
63220;BMP180;49320;52.512;13.448;2024-02-26T04:25:11;99983.00;;;11.40
63220;BMP180;49320;52.512;13.448;2024-02-26T04:27:38;99974.00;;;11.40
63220;BMP180;49320;52.512;13.448;2024-02-26T04:30:06;99972.00;;;11.40
63220;BMP180;49320;52.512;13.448;2024-02-26T04:32:34;99978.00;;;11.40
63220;BMP180;49320;52.512;13.448;2024-02-26T04:35:02;99980.00;;;11.40
63220;BMP180;49320;52.512;13.448;2024-02-26T04:37:29;99980.00;;;11.40
63220;BMP180;49320;52.512;13.448;2024-02-26T04:39:59;99985.00;;;11.40
63220;BMP180;49320;52.512;13.448;2024-02-26T04:42:27;99992.00;;;11.50
63220;BMP180;49320;52.512;13.448;2024-02-26T04:44:55;100003.00;;;11.50
63220;BMP180;49320;52.512;13.448;2024-02-26T04:47:22;100013.00;;;11.50
63220;BMP180;49320;52.512;13.448;2024-02-26T04:49:50;100008.00;;;11.50
63220;BMP180;49320;52.512;13.448;2024-02-26T04:52:18;100012.00;;;11.60
63220;BMP180;49320;52.512;13.448;2024-02-26T04:54:45;100007.00;;;11.60
63220;BMP180;49320;52.512;13.448;2024-02-26T04:57:12;100006.00;;;11.60
63220;BMP180;49320;52.512;13.448;2024-02-26T04:59:39;100009.00;;;11.60
63220;BMP180;49320;52.512;13.448;2024-02-26T05:02:07;100014.00;;;11.60
63220;BMP180;49320;52.512;13.448;2024-02-26T05:04:35;100000.00;;;11.60
63220;BMP180;49320;52.512;13.448;2024-02-26T05:07:01;100003.00;;;11.60
63220;BMP180;49320;52.512;13.448;2024-02-26T05:09:29;100005.00;;;11.60
63220;BMP180;49320;52.512;13.448;2024-02-26T05:11:56;100009.00;;;11.60
63220;BMP180;49320;52.512;13.448;2024-02-26T05:14:22;100021.00;;;11.60
63220;BMP180;49320;52.512;13.448;2024-02-26T05:16:49;100017.00;;;11.60
63220;BMP180;49320;52.512;13.448;2024-02-26T05:19:16;100017.00;;;11.60
63220;BMP180;49320;52.512;13.448;2024-02-26T05:21:43;100030.00;;;11.60
63220;BMP180;49320;52.512;13.448;2024-02-26T05:24:10;100028.00;;;11.60
63220;BMP180;49320;52.512;13.448;2024-02-26T05:26:37;100028.00;;;11.60
63220;BMP180;49320;52.512;13.448;2024-02-26T05:29:04;100026.00;;;11.60
63220;BMP180;49320;52.512;13.448;2024-02-26T05:31:31;100035.00;;;11.60
63220;BMP180;49320;52.512;13.448;2024-02-26T05:33:58;100037.00;;;11.60
63220;BMP180;49320;52.512;13.448;2024-02-26T05:36:25;100029.00;;;11.60
63220;BMP180;49320;52.512;13.448;2024-02-26T05:38:52;100030.00;;;11.60
63220;BMP180;49320;52.512;13.448;2024-02-26T05:41:20;100027.00;;;11.60
63220;BMP180;49320;52.512;13.448;2024-02-26T05:43:50;100033.00;;;11.60
63220;BMP180;49320;52.512;13.448;2024-02-26T05:46:18;100039.00;;;11.60
63220;BMP180;49320;52.512;13.448;2024-02-26T05:48:48;100040.00;;;11.60
63220;BMP180;49320;52.512;13.448;2024-02-26T05:51:15;100047.00;;;11.60
63220;BMP180;49320;52.512;13.448;2024-02-26T05:53:42;100047.00;;;11.60
63220;BMP180;49320;52.512;13.448;2024-02-26T05:56:09;100042.00;;;11.60
63220;BMP180;49320;52.512;13.448;2024-02-26T05:58:36;100035.00;;;11.60
63220;BMP180;49320;52.512;13.448;2024-02-26T06:01:03;100040.00;;;11.60
63220;BMP180;49320;52.512;13.448;2024-02-26T06:03:30;100064.00;;;11.60
63220;BMP180;49320;52.512;13.448;2024-02-26T06:05:57;100055.00;;;11.60
63220;BMP180;49320;52.512;13.448;2024-02-26T06:08:23;100058.00;;;11.60
63220;BMP180;49320;52.512;13.448;2024-02-26T06:10:50;100063.00;;;11.60
63220;BMP180;49320;52.512;13.448;2024-02-26T06:13:17;100063.00;;;11.60
63220;BMP180;49320;52.512;13.448;2024-02-26T06:15:44;100065.00;;;11.60
63220;BMP180;49320;52.512;13.448;2024-02-26T06:18:11;100058.00;;;11.60
63220;BMP180;49320;52.512;13.448;2024-02-26T06:20:38;100061.00;;;11.60
63220;BMP180;49320;52.512;13.448;2024-02-26T06:23:04;100062.00;;;11.60
63220;BMP180;49320;52.512;13.448;2024-02-26T06:25:31;100056.00;;;11.60
63220;BMP180;49320;52.512;13.448;2024-02-26T06:27:58;100074.00;;;11.70
63220;BMP180;49320;52.512;13.448;2024-02-26T06:30:25;100066.00;;;11.70
63220;BMP180;49320;52.512;13.448;2024-02-26T06:32:52;100070.00;;;11.70
63220;BMP180;49320;52.512;13.448;2024-02-26T06:35:19;100068.00;;;11.70
63220;BMP180;49320;52.512;13.448;2024-02-26T06:37:46;100081.00;;;11.70
63220;BMP180;49320;52.512;13.448;2024-02-26T06:40:13;100077.00;;;11.70
63220;BMP180;49320;52.512;13.448;2024-02-26T06:42:40;100082.00;;;11.80
63220;BMP180;49320;52.512;13.448;2024-02-26T06:45:07;100092.00;;;11.80
63220;BMP180;49320;52.512;13.448;2024-02-26T06:47:36;100080.00;;;11.90
63220;BMP180;49320;52.512;13.448;2024-02-26T06:50:03;100108.00;;;12.00
63220;BMP180;49320;52.512;13.448;2024-02-26T06:52:30;100104.00;;;12.00
63220;BMP180;49320;52.512;13.448;2024-02-26T06:54:57;100113.00;;;12.10
63220;BMP180;49320;52.512;13.448;2024-02-26T06:57:24;100096.00;;;12.10
63220;BMP180;49320;52.512;13.448;2024-02-26T06:59:50;100098.00;;;12.20
63220;BMP180;49320;52.512;13.448;2024-02-26T07:02:18;100105.00;;;12.20
63220;BMP180;49320;52.512;13.448;2024-02-26T07:04:44;100109.00;;;12.20
63220;BMP180;49320;52.512;13.448;2024-02-26T07:07:11;100106.00;;;12.30
63220;BMP180;49320;52.512;13.448;2024-02-26T07:09:42;100123.00;;;12.40
63220;BMP180;49320;52.512;13.448;2024-02-26T07:12:09;100114.00;;;12.40
63220;BMP180;49320;52.512;13.448;2024-02-26T07:14:36;100121.00;;;12.40
63220;BMP180;49320;52.512;13.448;2024-02-26T07:17:04;100131.00;;;12.40
63220;BMP180;49320;52.512;13.448;2024-02-26T07:19:31;100137.00;;;12.50
63220;BMP180;49320;52.512;13.448;2024-02-26T07:21:58;100128.00;;;12.50
63220;BMP180;49320;52.512;13.448;2024-02-26T07:24:25;100130.00;;;12.50
63220;BMP180;49320;52.512;13.448;2024-02-26T07:26:51;100126.00;;;12.50
63220;BMP180;49320;52.512;13.448;2024-02-26T07:29:18;100116.00;;;12.50
63220;BMP180;49320;52.512;13.448;2024-02-26T07:31:46;100120.00;;;12.60
63220;BMP180;49320;52.512;13.448;2024-02-26T07:34:13;100122.00;;;12.60
63220;BMP180;49320;52.512;13.448;2024-02-26T07:36:40;100127.00;;;12.70
63220;BMP180;49320;52.512;13.448;2024-02-26T07:39:07;100126.00;;;12.70
63220;BMP180;49320;52.512;13.448;2024-02-26T07:41:34;100129.00;;;12.80
63220;BMP180;49320;52.512;13.448;2024-02-26T07:44:00;100124.00;;;12.80
63220;BMP180;49320;52.512;13.448;2024-02-26T07:46:27;100124.00;;;12.80
63220;BMP180;49320;52.512;13.448;2024-02-26T07:48:54;100115.00;;;12.80
63220;BMP180;49320;52.512;13.448;2024-02-26T07:51:21;100121.00;;;12.90
63220;BMP180;49320;52.512;13.448;2024-02-26T07:53:49;100116.00;;;12.90
63220;BMP180;49320;52.512;13.448;2024-02-26T07:56:16;100127.00;;;13.00
63220;BMP180;49320;52.512;13.448;2024-02-26T07:58:43;100122.00;;;13.00
63220;BMP180;49320;52.512;13.448;2024-02-26T08:01:13;100123.00;;;13.10
63220;BMP180;49320;52.512;13.448;2024-02-26T08:03:41;100127.00;;;13.20
63220;BMP180;49320;52.512;13.448;2024-02-26T08:06:08;100122.00;;;13.20
63220;BMP180;49320;52.512;13.448;2024-02-26T08:08:35;100130.00;;;13.30
63220;BMP180;49320;52.512;13.448;2024-02-26T08:11:03;100119.00;;;13.40
63220;BMP180;49320;52.512;13.448;2024-02-26T08:13:30;100125.00;;;13.40
63220;BMP180;49320;52.512;13.448;2024-02-26T08:15:57;100125.00;;;13.50
63220;BMP180;49320;52.512;13.448;2024-02-26T08:18:24;100122.00;;;13.60
63220;BMP180;49320;52.512;13.448;2024-02-26T08:20:51;100130.00;;;13.70
63220;BMP180;49320;52.512;13.448;2024-02-26T08:23:18;100138.00;;;13.80
63220;BMP180;49320;52.512;13.448;2024-02-26T08:25:45;100119.00;;;13.90
63220;BMP180;49320;52.512;13.448;2024-02-26T08:28:11;100128.00;;;14.10
63220;BMP180;49320;52.512;13.448;2024-02-26T08:30:39;100127.00;;;14.20
63220;BMP180;49320;52.512;13.448;2024-02-26T08:33:06;100115.00;;;14.30
63220;BMP180;49320;52.512;13.448;2024-02-26T08:35:33;100123.00;;;14.40
63220;BMP180;49320;52.512;13.448;2024-02-26T08:38:00;100121.00;;;14.60
63220;BMP180;49320;52.512;13.448;2024-02-26T08:40:27;100120.00;;;14.70
63220;BMP180;49320;52.512;13.448;2024-02-26T08:42:53;100128.00;;;14.80
63220;BMP180;49320;52.512;13.448;2024-02-26T08:45:21;100123.00;;;14.90
63220;BMP180;49320;52.512;13.448;2024-02-26T08:47:47;100130.00;;;15.10
63220;BMP180;49320;52.512;13.448;2024-02-26T08:50:14;100113.00;;;15.10
63220;BMP180;49320;52.512;13.448;2024-02-26T08:52:41;100127.00;;;15.20
63220;BMP180;49320;52.512;13.448;2024-02-26T08:55:08;100116.00;;;15.30
63220;BMP180;49320;52.512;13.448;2024-02-26T08:57:35;100124.00;;;15.40
63220;BMP180;49320;52.512;13.448;2024-02-26T09:00:03;100119.00;;;15.40
63220;BMP180;49320;52.512;13.448;2024-02-26T09:02:30;100130.00;;;15.50
63220;BMP180;49320;52.512;13.448;2024-02-26T09:04:57;100114.00;;;15.60
63220;BMP180;49320;52.512;13.448;2024-02-26T09:07:24;100121.00;;;15.60
63220;BMP180;49320;52.512;13.448;2024-02-26T09:09:51;100111.00;;;15.70
63220;BMP180;49320;52.512;13.448;2024-02-26T09:12:18;100124.00;;;15.80
63220;BMP180;49320;52.512;13.448;2024-02-26T09:14:46;100129.00;;;15.80
63220;BMP180;49320;52.512;13.448;2024-02-26T09:17:13;100121.00;;;15.90
63220;BMP180;49320;52.512;13.448;2024-02-26T09:19:39;100119.00;;;16.00
63220;BMP180;49320;52.512;13.448;2024-02-26T09:22:07;100118.00;;;16.00
63220;BMP180;49320;52.512;13.448;2024-02-26T09:24:34;100126.00;;;16.00
63220;BMP180;49320;52.512;13.448;2024-02-26T09:27:01;100130.00;;;16.10
63220;BMP180;49320;52.512;13.448;2024-02-26T09:29:28;100120.00;;;16.10
63220;BMP180;49320;52.512;13.448;2024-02-26T09:31:55;100122.00;;;16.10
63220;BMP180;49320;52.512;13.448;2024-02-26T09:34:22;100128.00;;;16.10
63220;BMP180;49320;52.512;13.448;2024-02-26T09:36:49;100137.00;;;16.20
63220;BMP180;49320;52.512;13.448;2024-02-26T09:39:16;100130.00;;;16.20
63220;BMP180;49320;52.512;13.448;2024-02-26T09:41:48;100127.00;;;16.30
63220;BMP180;49320;52.512;13.448;2024-02-26T09:44:20;100129.00;;;16.30
63220;BMP180;49320;52.512;13.448;2024-02-26T09:46:50;100129.00;;;16.30
63220;BMP180;49320;52.512;13.448;2024-02-26T09:49:21;100125.00;;;16.30
63220;BMP180;49320;52.512;13.448;2024-02-26T09:51:52;100133.00;;;16.30
63220;BMP180;49320;52.512;13.448;2024-02-26T09:54:20;100131.00;;;16.40
63220;BMP180;49320;52.512;13.448;2024-02-26T09:56:49;100129.00;;;16.40
63220;BMP180;49320;52.512;13.448;2024-02-26T09:59:35;100135.00;;;16.50
63220;BMP180;49320;52.512;13.448;2024-02-26T10:02:13;100137.00;;;16.50
63220;BMP180;49320;52.512;13.448;2024-02-26T10:04:42;100138.00;;;16.50
63220;BMP180;49320;52.512;13.448;2024-02-26T10:07:15;100135.00;;;16.60
63220;BMP180;49320;52.512;13.448;2024-02-26T10:09:42;100148.00;;;16.70
63220;BMP180;49320;52.512;13.448;2024-02-26T10:12:11;100143.00;;;16.70
63220;BMP180;49320;52.512;13.448;2024-02-26T10:14:42;100146.00;;;16.80
63220;BMP180;49320;52.512;13.448;2024-02-26T10:17:10;100148.00;;;16.80
63220;BMP180;49320;52.512;13.448;2024-02-26T10:19:38;100144.00;;;16.90
63220;BMP180;49320;52.512;13.448;2024-02-26T10:22:05;100136.00;;;16.90
63220;BMP180;49320;52.512;13.448;2024-02-26T10:24:32;100143.00;;;17.00
63220;BMP180;49320;52.512;13.448;2024-02-26T10:27:02;100143.00;;;17.10
63220;BMP180;49320;52.512;13.448;2024-02-26T10:29:29;100139.00;;;17.10
63220;BMP180;49320;52.512;13.448;2024-02-26T10:31:56;100142.00;;;17.20
63220;BMP180;49320;52.512;13.448;2024-02-26T10:34:23;100144.00;;;17.30
63220;BMP180;49320;52.512;13.448;2024-02-26T10:36:50;100145.00;;;17.30
63220;BMP180;49320;52.512;13.448;2024-02-26T10:39:20;100141.00;;;17.40
63220;BMP180;49320;52.512;13.448;2024-02-26T10:41:49;100142.00;;;17.50
63220;BMP180;49320;52.512;13.448;2024-02-26T10:44:16;100143.00;;;17.60
63220;BMP180;49320;52.512;13.448;2024-02-26T10:46:47;100146.00;;;17.70
63220;BMP180;49320;52.512;13.448;2024-02-26T10:49:18;100146.00;;;17.80
63220;BMP180;49320;52.512;13.448;2024-02-26T10:51:55;100141.00;;;17.80
63220;BMP180;49320;52.512;13.448;2024-02-26T10:54:26;100135.00;;;17.90
63220;BMP180;49320;52.512;13.448;2024-02-26T10:56:57;100152.00;;;17.90
63220;BMP180;49320;52.512;13.448;2024-02-26T10:59:26;100151.00;;;17.90
63220;BMP180;49320;52.512;13.448;2024-02-26T11:01:54;100147.00;;;18.00
63220;BMP180;49320;52.512;13.448;2024-02-26T11:04:22;100151.00;;;18.00
63220;BMP180;49320;52.512;13.448;2024-02-26T11:06:54;100165.00;;;18.00
63220;BMP180;49320;52.512;13.448;2024-02-26T11:09:24;100153.00;;;18.10
63220;BMP180;49320;52.512;13.448;2024-02-26T11:11:51;100151.00;;;18.10
63220;BMP180;49320;52.512;13.448;2024-02-26T11:14:22;100146.00;;;18.10
63220;BMP180;49320;52.512;13.448;2024-02-26T11:16:55;100144.00;;;18.20
63220;BMP180;49320;52.512;13.448;2024-02-26T11:19:25;100144.00;;;18.20
63220;BMP180;49320;52.512;13.448;2024-02-26T11:21:53;100154.00;;;18.30
63220;BMP180;49320;52.512;13.448;2024-02-26T11:24:20;100143.00;;;18.30
63220;BMP180;49320;52.512;13.448;2024-02-26T11:26:52;100140.00;;;18.40
63220;BMP180;49320;52.512;13.448;2024-02-26T11:29:35;100147.00;;;18.50
63220;BMP180;49320;52.512;13.448;2024-02-26T11:32:05;100157.00;;;18.50
63220;BMP180;49320;52.512;13.448;2024-02-26T11:34:33;100144.00;;;18.60
63220;BMP180;49320;52.512;13.448;2024-02-26T11:37:14;100146.00;;;18.60
63220;BMP180;49320;52.512;13.448;2024-02-26T11:39:42;100136.00;;;18.70
63220;BMP180;49320;52.512;13.448;2024-02-26T11:42:10;100147.00;;;18.70
63220;BMP180;49320;52.512;13.448;2024-02-26T11:44:40;100139.00;;;18.80
63220;BMP180;49320;52.512;13.448;2024-02-26T11:47:22;100145.00;;;18.90
63220;BMP180;49320;52.512;13.448;2024-02-26T11:49:49;100144.00;;;18.90
63220;BMP180;49320;52.512;13.448;2024-02-26T11:52:16;100137.00;;;19.00
63220;BMP180;49320;52.512;13.448;2024-02-26T11:54:56;100148.00;;;19.10
63220;BMP180;49320;52.512;13.448;2024-02-26T11:57:39;100140.00;;;19.20
63220;BMP180;49320;52.512;13.448;2024-02-26T12:05:20;100147.00;;;19.30
63220;BMP180;49320;52.512;13.448;2024-02-26T12:07:53;100146.00;;;19.30
63220;BMP180;49320;52.512;13.448;2024-02-26T12:13:03;100141.00;;;19.30
63220;BMP180;49320;52.512;13.448;2024-02-26T12:15:37;100143.00;;;19.30
63220;BMP180;49320;52.512;13.448;2024-02-26T12:18:06;100145.00;;;19.30
63220;BMP180;49320;52.512;13.448;2024-02-26T12:20:37;100144.00;;;19.30
63220;BMP180;49320;52.512;13.448;2024-02-26T12:23:04;100134.00;;;19.30
63220;BMP180;49320;52.512;13.448;2024-02-26T12:25:32;100136.00;;;19.30
63220;BMP180;49320;52.512;13.448;2024-02-26T12:28:00;100136.00;;;19.30
63220;BMP180;49320;52.512;13.448;2024-02-26T12:30:27;100147.00;;;19.40
63220;BMP180;49320;52.512;13.448;2024-02-26T12:32:57;100141.00;;;19.40
63220;BMP180;49320;52.512;13.448;2024-02-26T12:35:25;100147.00;;;19.50
63220;BMP180;49320;52.512;13.448;2024-02-26T12:37:53;100150.00;;;19.50
63220;BMP180;49320;52.512;13.448;2024-02-26T12:40:21;100164.00;;;19.50
63220;BMP180;49320;52.512;13.448;2024-02-26T12:42:48;100153.00;;;19.50
63220;BMP180;49320;52.512;13.448;2024-02-26T12:45:16;100164.00;;;19.50
63220;BMP180;49320;52.512;13.448;2024-02-26T12:47:45;100162.00;;;19.60
63220;BMP180;49320;52.512;13.448;2024-02-26T12:50:16;100167.00;;;19.60
63220;BMP180;49320;52.512;13.448;2024-02-26T12:52:46;100155.00;;;19.60
63220;BMP180;49320;52.512;13.448;2024-02-26T12:55:19;100164.00;;;19.70
63220;BMP180;49320;52.512;13.448;2024-02-26T12:57:48;100159.00;;;19.70
63220;BMP180;49320;52.512;13.448;2024-02-26T13:00:21;100156.00;;;19.70
63220;BMP180;49320;52.512;13.448;2024-02-26T13:02:50;100145.00;;;19.70
63220;BMP180;49320;52.512;13.448;2024-02-26T13:05:19;100164.00;;;19.70
63220;BMP180;49320;52.512;13.448;2024-02-26T13:07:47;100145.00;;;19.70
63220;BMP180;49320;52.512;13.448;2024-02-26T13:10:15;100147.00;;;19.70
63220;BMP180;49320;52.512;13.448;2024-02-26T13:12:46;100149.00;;;19.70
63220;BMP180;49320;52.512;13.448;2024-02-26T13:15:18;100158.00;;;19.70
63220;BMP180;49320;52.512;13.448;2024-02-26T13:17:46;100150.00;;;19.70
63220;BMP180;49320;52.512;13.448;2024-02-26T13:20:26;100146.00;;;19.70
63220;BMP180;49320;52.512;13.448;2024-02-26T13:23:06;100154.00;;;19.70
63220;BMP180;49320;52.512;13.448;2024-02-26T13:25:34;100158.00;;;19.70
63220;BMP180;49320;52.512;13.448;2024-02-26T13:28:17;100165.00;;;19.80
63220;BMP180;49320;52.512;13.448;2024-02-26T13:30:56;100162.00;;;19.80
63220;BMP180;49320;52.512;13.448;2024-02-26T13:33:28;100151.00;;;19.80
63220;BMP180;49320;52.512;13.448;2024-02-26T13:35:57;100151.00;;;19.90
63220;BMP180;49320;52.512;13.448;2024-02-26T13:38:24;100153.00;;;19.90
63220;BMP180;49320;52.512;13.448;2024-02-26T13:40:52;100159.00;;;20.00
63220;BMP180;49320;52.512;13.448;2024-02-26T13:43:20;100167.00;;;20.00
63220;BMP180;49320;52.512;13.448;2024-02-26T13:45:47;100164.00;;;20.10
63220;BMP180;49320;52.512;13.448;2024-02-26T13:48:15;100170.00;;;20.10
63220;BMP180;49320;52.512;13.448;2024-02-26T13:50:43;100165.00;;;20.10
63220;BMP180;49320;52.512;13.448;2024-02-26T13:53:11;100164.00;;;20.00
63220;BMP180;49320;52.512;13.448;2024-02-26T13:55:39;100170.00;;;20.00
63220;BMP180;49320;52.512;13.448;2024-02-26T13:58:12;100173.00;;;19.90
63220;BMP180;49320;52.512;13.448;2024-02-26T14:00:40;100182.00;;;19.90
63220;BMP180;49320;52.512;13.448;2024-02-26T14:03:09;100179.00;;;19.80